Ainsworth, Iowa
Current Conditions -  °F | °C
As of 4:35 AM on Friday 21 Nov 2014 (Local Time) from KAWG Reporting Station
Clear Clear  
Wind Chill:   Ceiling: Unl
Heat Index: 10°   Visibility: 10mi
Dew Point:   Wind: 5mph
Humidity: 92%   Direction: 150°SSE
Pressure: 30.37"   Gusts: NA
Location:  41.29°N, 91.55°W
Report Text: KAWG 211035Z AUTO 15004KT 10SM CLR M12/M13 A3037 RMK AO2
Loading
Personal Weather Stations






























Interactive Weather Map New forecast layout! Learn more

10-Day Weather Forecast

Advertisements
Track Severe Weather on mobile